createdAt,value
2018-09-24T00:00:10.638Z,8.60
2018-09-24T00:02:38.631Z,8.70
2018-09-24T00:05:06.969Z,8.60
2018-09-24T00:07:35.140Z,8.60
2018-09-24T00:10:03.292Z,8.60
2018-09-24T00:12:31.466Z,8.70
2018-09-24T00:14:59.691Z,8.70
2018-09-24T00:17:27.939Z,8.70
2018-09-24T00:19:56.152Z,8.70
2018-09-24T00:22:24.403Z,8.70
2018-09-24T00:24:52.561Z,8.80
2018-09-24T00:27:20.753Z,8.90
2018-09-24T00:29:49.073Z,8.90
2018-09-24T00:32:17.319Z,8.80
2018-09-24T00:34:45.560Z,8.80
2018-09-24T00:37:13.727Z,8.80
2018-09-24T00:39:41.923Z,8.80
2018-09-24T00:42:10.131Z,8.80
2018-09-24T00:44:38.461Z,8.80
2018-09-24T00:47:06.689Z,8.70
2018-09-24T00:49:35.355Z,8.70
2018-09-24T00:52:03.520Z,8.70
2018-09-24T00:54:31.784Z,8.70
2018-09-24T00:57:00.069Z,8.70
2018-09-24T00:59:28.404Z,8.70
2018-09-24T01:01:56.627Z,8.70
2018-09-24T01:04:24.877Z,8.80
2018-09-24T01:06:53.153Z,8.80
2018-09-24T01:09:21.364Z,8.90
2018-09-24T01:11:49.580Z,8.90
2018-09-24T01:14:17.787Z,8.90
2018-09-24T01:16:46.055Z,8.90
2018-09-24T01:19:14.334Z,8.90
2018-09-24T01:21:42.603Z,8.90
2018-09-24T01:24:11.000Z,9.00
2018-09-24T01:26:39.232Z,8.90
2018-09-24T01:29:09.451Z,8.80
2018-09-24T01:31:37.704Z,8.80
2018-09-24T01:34:06.026Z,8.80
2018-09-24T01:36:34.370Z,8.80
2018-09-24T01:39:02.559Z,8.80
2018-09-24T01:41:30.855Z,8.80
2018-09-24T01:43:59.197Z,8.90
2018-09-24T01:46:27.408Z,8.90
2018-09-24T01:48:55.678Z,8.90
2018-09-24T01:51:31.395Z,8.90
2018-09-24T01:53:59.612Z,8.80
2018-09-24T01:56:27.888Z,8.80
2018-09-24T01:58:56.148Z,8.80
2018-09-24T02:01:24.452Z,8.80
2018-09-24T02:03:52.682Z,8.80
2018-09-24T02:06:20.870Z,8.80
2018-09-24T02:08:49.501Z,8.80
2018-09-24T02:11:17.740Z,8.80
2018-09-24T02:13:47.559Z,8.80
2018-09-24T02:16:16.183Z,8.80
2018-09-24T02:18:44.748Z,8.80
2018-09-24T02:21:12.921Z,8.80
2018-09-24T02:23:41.093Z,8.80
2018-09-24T02:26:09.444Z,8.80
2018-09-24T02:28:37.620Z,8.70
2018-09-24T02:31:05.820Z,8.70
2018-09-24T02:33:33.979Z,8.60
2018-09-24T02:36:02.163Z,8.70
2018-09-24T02:38:36.019Z,8.60
2018-09-24T02:41:04.291Z,8.70
2018-09-24T02:43:32.447Z,8.60
2018-09-24T02:46:00.671Z,8.70
2018-09-24T02:48:28.843Z,8.70
2018-09-24T02:50:57.022Z,8.70
2018-09-24T02:53:25.195Z,8.70
2018-09-24T02:55:53.405Z,8.70
2018-09-24T02:58:22.400Z,8.80
2018-09-24T03:00:51.021Z,8.70
2018-09-24T03:03:19.231Z,8.70
2018-09-24T03:05:47.515Z,8.70
2018-09-24T03:08:15.711Z,8.70
2018-09-24T03:10:43.912Z,8.70
2018-09-24T03:13:12.152Z,8.70
2018-09-24T03:15:41.415Z,8.70
2018-09-24T03:18:10.303Z,8.70
2018-09-24T03:20:41.084Z,8.70
2018-09-24T03:23:09.761Z,8.70
2018-09-24T03:25:38.415Z,8.70
2018-09-24T03:28:06.573Z,8.70
2018-09-24T03:30:38.623Z,8.70
2018-09-24T03:33:06.796Z,8.70
2018-09-24T03:35:35.180Z,8.70
2018-09-24T03:38:03.442Z,8.70
2018-09-24T03:40:32.079Z,8.60
2018-09-24T03:43:00.385Z,8.60
2018-09-24T03:45:29.445Z,8.60
2018-09-24T03:47:57.696Z,8.70
2018-09-24T03:50:25.839Z,8.70
2018-09-24T03:52:54.026Z,8.70
2018-09-24T03:55:22.178Z,8.70
2018-09-24T03:57:50.349Z,8.60
2018-09-24T04:00:18.507Z,8.70
2018-09-24T04:02:47.088Z,8.60
2018-09-24T04:05:20.787Z,8.50
2018-09-24T04:07:58.257Z,8.40
2018-09-24T04:10:31.754Z,8.40
2018-09-24T04:13:05.447Z,8.40
2018-09-24T04:15:39.059Z,8.40
2018-09-24T04:18:12.672Z,8.40
2018-09-24T04:20:46.388Z,8.40
2018-09-24T04:23:20.170Z,8.40
2018-09-24T04:25:53.649Z,8.40
2018-09-24T04:28:27.275Z,8.40
2018-09-24T04:31:00.680Z,8.40
2018-09-24T04:33:34.353Z,8.40
2018-09-24T04:36:08.001Z,8.40
2018-09-24T04:38:41.525Z,8.30
2018-09-24T04:41:15.025Z,8.30
2018-09-24T04:43:48.651Z,8.30
2018-09-24T04:46:22.246Z,8.20
2018-09-24T04:48:55.935Z,8.20
2018-09-24T04:51:29.595Z,8.10
2018-09-24T04:54:03.083Z,8.00
2018-09-24T04:56:36.520Z,8.00
2018-09-24T04:59:10.057Z,7.90
2018-09-24T05:01:43.586Z,8.00
2018-09-24T05:04:17.203Z,7.90
2018-09-24T05:06:50.665Z,8.00
2018-09-24T05:09:24.136Z,8.00
2018-09-24T05:11:57.783Z,8.00
2018-09-24T05:14:31.375Z,8.10
2018-09-24T05:17:04.948Z,8.00
2018-09-24T05:19:38.412Z,8.00
2018-09-24T05:22:12.093Z,7.80
2018-09-24T05:24:45.615Z,7.70
2018-09-24T05:27:19.187Z,7.70
2018-09-24T05:29:52.806Z,7.60
2018-09-24T05:32:26.426Z,7.50
2018-09-24T05:35:00.016Z,7.40
2018-09-24T05:37:33.652Z,7.40
2018-09-24T05:40:07.247Z,7.50
2018-09-24T05:42:40.797Z,7.60
2018-09-24T05:45:14.734Z,7.60
2018-09-24T05:47:48.287Z,7.70
2018-09-24T05:50:21.727Z,7.70
2018-09-24T05:52:55.355Z,7.60
2018-09-24T05:55:28.807Z,7.70
2018-09-24T05:58:02.501Z,7.60
2018-09-24T06:00:36.208Z,7.70
2018-09-24T06:03:09.783Z,7.50
2018-09-24T06:05:43.479Z,7.50
2018-09-24T06:08:16.918Z,7.50
2018-09-24T06:10:50.586Z,7.60
2018-09-24T06:13:24.267Z,7.50
2018-09-24T06:15:57.807Z,7.60
2018-09-24T06:18:31.518Z,7.80
2018-09-24T06:21:05.012Z,8.00
2018-09-24T06:23:38.588Z,8.30
2018-09-24T06:26:12.153Z,8.50
2018-09-24T06:28:45.830Z,8.70
2018-09-24T06:31:19.487Z,8.90
2018-09-24T06:33:53.112Z,9.00
2018-09-24T06:36:26.628Z,9.00
2018-09-24T06:39:00.290Z,9.10
2018-09-24T06:41:33.845Z,9.60
2018-09-24T06:44:07.532Z,10.00
2018-09-24T06:46:41.234Z,10.00
2018-09-24T06:49:14.840Z,9.90
2018-09-24T06:51:48.312Z,10.00
2018-09-24T06:54:21.939Z,10.30
2018-09-24T06:56:55.595Z,10.60
2018-09-24T06:59:29.586Z,10.50
2018-09-24T07:02:03.160Z,10.40
2018-09-24T07:04:36.696Z,10.40
2018-09-24T07:07:10.378Z,10.10
2018-09-24T07:09:43.863Z,10.30
2018-09-24T07:12:17.449Z,10.70
2018-09-24T07:14:50.807Z,11.10
2018-09-24T07:17:24.445Z,11.60
2018-09-24T07:19:58.124Z,11.70
2018-09-24T07:22:31.650Z,12.20
2018-09-24T07:25:05.200Z,12.30
2018-09-24T07:27:38.861Z,13.10
2018-09-24T07:30:12.527Z,12.80
2018-09-24T07:32:46.155Z,13.80
2018-09-24T07:35:19.769Z,14.00
2018-09-24T07:37:53.435Z,13.90
2018-09-24T07:40:27.134Z,14.60
2018-09-24T07:43:00.809Z,14.60
2018-09-24T07:45:34.323Z,14.20
2018-09-24T07:48:07.986Z,15.30
2018-09-24T07:50:41.640Z,15.70
2018-09-24T07:53:15.333Z,16.00
2018-09-24T07:55:49.119Z,16.00
2018-09-24T07:58:22.582Z,16.00
2018-09-24T08:00:56.316Z,16.40
2018-09-24T08:03:29.805Z,16.30
2018-09-24T08:06:03.517Z,15.60
2018-09-24T08:08:37.072Z,16.00
2018-09-24T08:11:10.700Z,16.10
2018-09-24T08:13:44.237Z,16.10
2018-09-24T08:16:17.783Z,16.10
2018-09-24T08:18:51.568Z,16.50
2018-09-24T08:21:25.061Z,16.70
2018-09-24T08:23:58.813Z,16.30
2018-09-24T08:26:32.464Z,15.90
2018-09-24T08:29:06.098Z,16.40
2018-09-24T08:31:39.619Z,17.00
2018-09-24T08:34:13.278Z,17.20
2018-09-24T08:36:46.978Z,17.50
2018-09-24T08:39:20.669Z,17.20
2018-09-24T08:41:54.183Z,16.80
2018-09-24T08:44:27.792Z,16.30
2018-09-24T08:47:01.400Z,15.70
2018-09-24T08:49:34.891Z,16.20
2018-09-24T08:52:08.512Z,16.40
2018-09-24T08:54:42.127Z,17.00
2018-09-24T08:57:15.869Z,17.70
2018-09-24T08:59:49.378Z,17.10
2018-09-24T09:02:22.892Z,16.60
2018-09-24T09:04:56.518Z,17.80
2018-09-24T09:07:30.126Z,17.10
2018-09-24T09:10:03.656Z,16.60
2018-09-24T09:12:37.233Z,16.10
2018-09-24T09:15:10.920Z,15.40
2018-09-24T09:17:44.567Z,15.40
2018-09-24T09:20:18.211Z,15.30
2018-09-24T09:22:51.813Z,14.90
2018-09-24T09:25:25.410Z,15.30
2018-09-24T09:27:59.092Z,15.90
2018-09-24T09:30:32.790Z,14.60
2018-09-24T09:33:06.474Z,14.10
2018-09-24T09:35:39.842Z,14.30
2018-09-24T09:38:13.359Z,15.40
2018-09-24T09:40:47.047Z,16.60
2018-09-24T09:43:20.663Z,18.00
2018-09-24T09:45:54.324Z,18.50
2018-09-24T09:48:27.964Z,19.40
2018-09-24T09:51:01.556Z,18.40
2018-09-24T09:53:35.491Z,17.50
2018-09-24T09:56:09.004Z,17.60
2018-09-24T09:58:42.419Z,17.50
2018-09-24T10:01:16.037Z,16.20
2018-09-24T10:03:49.658Z,15.70
2018-09-24T10:06:23.199Z,15.50
2018-09-24T10:08:56.948Z,15.20
2018-09-24T10:11:30.569Z,15.30
2018-09-24T10:14:04.267Z,16.50
2018-09-24T10:16:37.793Z,16.80
2018-09-24T10:19:11.218Z,16.30
2018-09-24T10:21:44.728Z,16.20
2018-09-24T10:24:18.358Z,16.10
2018-09-24T10:26:51.915Z,15.40
2018-09-24T10:29:25.489Z,14.60
2018-09-24T10:31:59.140Z,14.20
2018-09-24T10:34:32.664Z,14.90
2018-09-24T10:37:06.378Z,16.20
2018-09-24T10:39:40.145Z,16.10
2018-09-24T10:42:13.709Z,14.90
2018-09-24T10:44:47.311Z,15.10
2018-09-24T10:47:20.967Z,14.90
2018-09-24T10:49:54.685Z,15.20
2018-09-24T10:52:28.252Z,15.40
2018-09-24T10:55:01.764Z,15.60
2018-09-24T10:57:35.452Z,15.90
2018-09-24T11:00:08.979Z,15.20
2018-09-24T11:02:42.415Z,14.20
2018-09-24T11:05:15.824Z,14.10
2018-09-24T11:07:49.405Z,14.10
2018-09-24T11:10:23.150Z,14.40
2018-09-24T11:12:56.587Z,15.40
2018-09-24T11:15:30.123Z,16.30
2018-09-24T11:18:03.625Z,17.60
2018-09-24T11:20:37.731Z,17.10
2018-09-24T11:23:11.654Z,15.90
2018-09-24T11:25:44.945Z,14.80
2018-09-24T11:28:18.695Z,14.60
2018-09-24T11:33:42.866Z,14.80
2018-09-24T11:36:16.546Z,15.00
2018-09-24T11:38:50.158Z,15.40
2018-09-24T11:41:23.924Z,15.40
2018-09-24T11:43:57.561Z,15.40
2018-09-24T11:46:31.224Z,14.80
2018-09-24T11:49:04.867Z,14.60
2018-09-24T11:51:38.546Z,14.90
2018-09-24T11:54:12.040Z,14.90
2018-09-24T11:56:45.711Z,14.60
2018-09-24T11:59:19.050Z,14.30
2018-09-24T12:01:52.608Z,14.30
2018-09-24T12:04:26.267Z,13.90
2018-09-24T12:06:59.821Z,13.90
2018-09-24T12:09:33.404Z,14.20
2018-09-24T12:12:06.824Z,14.40
2018-09-24T12:14:40.412Z,14.80
2018-09-24T12:17:13.902Z,15.40
2018-09-24T12:19:47.515Z,16.40
2018-09-24T12:22:21.135Z,16.70
2018-09-24T12:24:54.746Z,15.90
2018-09-24T12:27:28.375Z,15.40
2018-09-24T12:30:01.931Z,14.80
2018-09-24T12:32:35.436Z,13.80
2018-09-24T12:35:10.069Z,13.40
2018-09-24T12:37:49.242Z,13.10
2018-09-24T12:40:22.799Z,12.90
2018-09-24T12:42:56.475Z,12.70
2018-09-24T12:45:30.134Z,12.40
2018-09-24T12:48:03.761Z,11.90
2018-09-24T12:50:37.323Z,11.70
2018-09-24T12:53:10.843Z,11.90
2018-09-24T12:55:44.461Z,12.50
2018-09-24T12:58:18.076Z,13.20
2018-09-24T13:00:51.617Z,13.90
2018-09-24T13:03:25.150Z,14.40
2018-09-24T13:05:58.656Z,14.30
2018-09-24T13:08:32.264Z,14.40
2018-09-24T13:11:05.776Z,14.50
2018-09-24T13:13:39.334Z,14.50
2018-09-24T13:18:53.739Z,14.50
2018-09-24T13:21:27.271Z,14.90
2018-09-24T13:24:00.726Z,15.30
2018-09-24T13:26:34.383Z,15.60
2018-09-24T13:29:08.126Z,15.40
2018-09-24T13:31:41.615Z,15.30
2018-09-24T13:34:15.300Z,15.10
2018-09-24T13:36:48.822Z,15.10
2018-09-24T13:39:22.336Z,15.10
2018-09-24T13:41:55.873Z,15.20
2018-09-24T13:44:29.524Z,14.80
2018-09-24T13:47:03.227Z,14.60
2018-09-24T13:49:36.714Z,14.40
2018-09-24T13:52:10.189Z,14.20
2018-09-24T13:54:43.802Z,14.00
2018-09-24T13:57:17.322Z,14.20
2018-09-24T13:59:50.922Z,14.40
2018-09-24T14:02:24.420Z,14.20
2018-09-24T14:04:58.089Z,14.20
2018-09-24T14:07:31.725Z,14.30
2018-09-24T14:10:05.062Z,14.90
2018-09-24T14:12:38.700Z,14.90
2018-09-24T14:15:12.377Z,14.70
2018-09-24T14:17:45.937Z,15.00
2018-09-24T14:20:19.588Z,15.30
2018-09-24T14:22:53.371Z,15.30
2018-09-24T14:25:26.912Z,15.10
2018-09-24T14:28:00.511Z,14.40
2018-09-24T14:30:33.854Z,13.90
2018-09-24T14:33:07.508Z,13.70
2018-09-24T14:35:41.164Z,13.30
2018-09-24T14:38:14.784Z,13.10
2018-09-24T14:40:48.490Z,12.90
2018-09-24T14:43:22.151Z,12.80
2018-09-24T14:45:55.782Z,12.80
2018-09-24T14:48:29.388Z,12.70
2018-09-24T14:51:02.931Z,12.60
2018-09-24T14:53:36.542Z,12.50
2018-09-24T14:56:11.135Z,12.60
2018-09-24T14:58:44.851Z,12.50
2018-09-24T15:01:18.547Z,12.40
2018-09-24T15:03:52.035Z,12.50
2018-09-24T15:06:25.556Z,12.50
2018-09-24T15:08:59.199Z,12.60
2018-09-24T15:11:32.746Z,12.70
2018-09-24T15:14:06.287Z,12.60
2018-09-24T15:16:39.891Z,12.80
2018-09-24T15:19:13.577Z,12.90
2018-09-24T15:21:47.348Z,12.80
2018-09-24T15:24:21.065Z,13.00
2018-09-24T15:26:54.576Z,13.00
2018-09-24T15:29:28.155Z,13.00
2018-09-24T15:32:01.602Z,13.00
2018-09-24T15:34:35.280Z,13.10
2018-09-24T15:37:08.992Z,13.00
2018-09-24T15:39:42.496Z,12.90
2018-09-24T15:42:16.156Z,12.80
2018-09-24T15:44:50.011Z,12.80
2018-09-24T15:47:24.150Z,12.70
2018-09-24T15:49:59.167Z,12.70
2018-09-24T15:52:32.823Z,12.70
2018-09-24T15:55:09.624Z,12.70
2018-09-24T15:57:43.291Z,12.60
2018-09-24T16:00:16.929Z,12.60
2018-09-24T16:02:50.855Z,12.60
2018-09-24T16:05:24.671Z,12.40
2018-09-24T16:07:58.199Z,12.30
2018-09-24T16:10:31.856Z,12.20
2018-09-24T16:13:05.539Z,12.20
2018-09-24T16:15:39.194Z,12.10
2018-09-24T16:18:12.685Z,12.20
2018-09-24T16:20:46.305Z,12.20
2018-09-24T16:23:19.974Z,12.40
2018-09-24T16:25:53.494Z,12.40
2018-09-24T16:28:26.999Z,12.20
2018-09-24T16:31:00.479Z,12.10
2018-09-24T16:33:34.070Z,12.10
2018-09-24T16:36:07.660Z,12.00
2018-09-24T16:38:41.381Z,11.90
2018-09-24T16:41:14.856Z,11.90
2018-09-24T16:43:49.195Z,11.90
2018-09-24T16:46:22.644Z,11.90
2018-09-24T16:48:56.204Z,11.80
2018-09-24T16:51:32.379Z,11.70
2018-09-24T16:54:06.029Z,11.60
2018-09-24T16:56:50.816Z,11.60
2018-09-24T16:59:25.284Z,11.50
2018-09-24T17:01:58.827Z,11.30
2018-09-24T17:04:34.318Z,11.10
2018-09-24T17:07:07.870Z,11.10
2018-09-24T17:09:41.563Z,11.00
2018-09-24T17:12:15.127Z,10.90
2018-09-24T17:14:48.883Z,10.90
2018-09-24T17:17:22.745Z,11.00
2018-09-24T17:19:56.421Z,11.00
2018-09-24T17:25:20.510Z,11.00
2018-09-24T17:27:56.242Z,11.00
2018-09-24T17:30:30.979Z,11.00
2018-09-24T17:33:05.645Z,11.00
2018-09-24T17:35:40.573Z,11.00
2018-09-24T17:38:14.051Z,11.00
2018-09-24T17:40:47.539Z,11.00
2018-09-24T17:43:21.164Z,11.00
2018-09-24T17:45:54.634Z,11.10
2018-09-24T17:48:28.145Z,11.10
2018-09-24T17:51:01.728Z,11.10
2018-09-24T17:53:35.125Z,11.00
2018-09-24T17:56:08.796Z,11.00
2018-09-24T17:58:42.449Z,11.00
2018-09-24T18:01:16.133Z,10.90
2018-09-24T18:03:49.778Z,10.70
2018-09-24T18:06:23.532Z,10.70
2018-09-24T18:08:57.128Z,10.60
2018-09-24T18:11:30.724Z,10.40
2018-09-24T18:14:04.364Z,10.30
2018-09-24T18:16:38.099Z,10.20
2018-09-24T18:19:11.675Z,10.10
2018-09-24T18:21:45.476Z,10.00
2018-09-24T18:24:18.910Z,9.80
2018-09-24T18:26:52.627Z,9.70
2018-09-24T18:29:26.230Z,9.50
2018-09-24T18:31:59.907Z,9.40
2018-09-24T18:34:33.503Z,9.40
2018-09-24T18:37:07.043Z,9.30
2018-09-24T18:39:40.661Z,9.30
2018-09-24T18:42:14.327Z,9.30
2018-09-24T18:44:47.848Z,9.20
2018-09-24T18:47:22.540Z,9.10
2018-09-24T18:49:56.238Z,9.10
2018-09-24T18:52:29.863Z,9.00
2018-09-24T18:55:03.515Z,8.90
2018-09-24T18:57:36.939Z,8.80
2018-09-24T19:00:11.647Z,8.60
2018-09-24T19:02:45.316Z,8.60
2018-09-24T19:05:18.820Z,8.50
2018-09-24T19:07:52.364Z,8.40
2018-09-24T19:10:25.974Z,8.30
2018-09-24T19:12:59.377Z,8.20
2018-09-24T19:15:33.015Z,8.20
2018-09-24T19:18:06.636Z,8.00
2018-09-24T19:20:40.111Z,8.00
2018-09-24T19:23:14.651Z,7.80
2018-09-24T19:25:48.301Z,7.70
2018-09-24T19:28:21.855Z,7.70
2018-09-24T19:30:56.562Z,7.60
2018-09-24T19:33:30.082Z,7.50
2018-09-24T19:36:04.687Z,7.50
2018-09-24T19:38:39.224Z,7.50
2018-09-24T19:41:12.849Z,7.40
2018-09-24T19:43:46.359Z,7.30
2018-09-24T19:46:19.836Z,7.30
2018-09-24T19:48:53.287Z,7.20
2018-09-24T19:51:26.813Z,7.10
2018-09-24T19:54:00.431Z,7.00
2018-09-24T19:56:34.050Z,7.00
2018-09-24T19:59:07.517Z,6.90
2018-09-24T20:01:41.207Z,6.90
2018-09-24T20:04:14.712Z,6.80
2018-09-24T20:06:48.106Z,6.80
2018-09-24T20:09:21.680Z,6.80
2018-09-24T20:11:55.178Z,6.70
2018-09-24T20:14:28.732Z,6.60
2018-09-24T20:17:02.330Z,6.50
2018-09-24T20:19:35.792Z,6.50
2018-09-24T20:22:12.016Z,6.30
2018-09-24T20:24:45.980Z,6.30
2018-09-24T20:27:21.243Z,6.30
2018-09-24T20:29:54.766Z,6.40
2018-09-24T20:32:30.535Z,6.60
2018-09-24T20:35:03.986Z,6.60
2018-09-24T20:37:37.395Z,6.70
2018-09-24T20:40:10.925Z,6.70
2018-09-24T20:42:44.475Z,6.90
2018-09-24T20:45:17.965Z,6.80
2018-09-24T20:47:51.624Z,6.90
2018-09-24T20:50:25.276Z,7.00
2018-09-24T20:52:58.851Z,7.20
2018-09-24T20:55:32.490Z,7.30
2018-09-24T20:58:06.159Z,7.40
2018-09-24T21:00:39.655Z,7.40
2018-09-24T21:03:13.316Z,7.30
2018-09-24T21:05:46.786Z,7.30
2018-09-24T21:08:20.281Z,7.40
2018-09-24T21:10:53.875Z,7.40
2018-09-24T21:13:27.319Z,7.50
2018-09-24T21:16:00.971Z,7.60
2018-09-24T21:18:34.608Z,7.60
2018-09-24T21:21:08.215Z,7.50
2018-09-24T21:23:41.791Z,7.40
2018-09-24T21:26:15.519Z,7.20
2018-09-24T21:28:49.116Z,7.20
2018-09-24T21:31:22.738Z,7.10
2018-09-24T21:33:56.206Z,7.10
2018-09-24T21:36:29.752Z,7.10
2018-09-24T21:39:03.328Z,6.90
2018-09-24T21:41:36.921Z,7.00
2018-09-24T21:44:10.568Z,6.90
2018-09-24T21:46:44.089Z,6.80
2018-09-24T21:49:17.503Z,6.60
2018-09-24T21:51:50.894Z,6.50
2018-09-24T21:54:24.582Z,6.40
2018-09-24T21:56:57.953Z,6.40
2018-09-24T21:59:31.626Z,6.30
2018-09-24T22:02:05.064Z,6.20
2018-09-24T22:04:38.734Z,6.20
2018-09-24T22:07:12.372Z,6.10
2018-09-24T22:09:45.810Z,6.00
2018-09-24T22:12:19.408Z,5.90
2018-09-24T22:14:59.841Z,5.80
2018-09-24T22:17:33.441Z,5.80
2018-09-24T22:20:07.062Z,5.70
2018-09-24T22:22:40.522Z,5.60
2018-09-24T22:25:14.184Z,5.50
2018-09-24T22:27:47.711Z,5.50
2018-09-24T22:30:21.256Z,5.30
2018-09-24T22:32:54.928Z,5.30
2018-09-24T22:35:28.408Z,5.30
2018-09-24T22:38:02.068Z,5.30
2018-09-24T22:40:35.684Z,5.30
2018-09-24T22:43:09.208Z,5.30
2018-09-24T22:45:42.871Z,5.40
2018-09-24T22:48:16.464Z,5.40
2018-09-24T22:50:50.044Z,5.20
2018-09-24T22:53:23.403Z,5.10
2018-09-24T22:55:57.020Z,5.00
2018-09-24T22:58:30.531Z,5.00
2018-09-24T23:01:04.163Z,5.00
2018-09-24T23:03:37.768Z,5.00
2018-09-24T23:06:11.373Z,4.90
2018-09-24T23:08:44.912Z,4.90
2018-09-24T23:11:18.490Z,4.80
2018-09-24T23:13:51.871Z,4.90
2018-09-24T23:16:25.543Z,4.90
2018-09-24T23:18:59.162Z,4.90
2018-09-24T23:21:32.760Z,4.90
2018-09-24T23:24:07.123Z,4.70
2018-09-24T23:26:40.579Z,4.70
2018-09-24T23:29:14.153Z,4.70
2018-09-24T23:31:47.738Z,4.70
2018-09-24T23:34:21.333Z,4.60
2018-09-24T23:36:54.923Z,4.50
2018-09-24T23:39:28.340Z,4.40
2018-09-24T23:42:01.738Z,4.40
2018-09-24T23:44:35.206Z,4.40
2018-09-24T23:47:08.825Z,4.50
2018-09-24T23:49:42.270Z,4.40
2018-09-24T23:52:15.682Z,4.30
2018-09-24T23:54:49.330Z,4.30
2018-09-24T23:57:22.891Z,4.20
2018-09-24T23:59:56.423Z,4.20
